Terminal Aerodrome Forecast
Issued by NWS Spokane, WA

Home | Current Version | Previous Version | Text Only | Print | Product List | Glossary On
Versions: 1 2 3 4 5 6 7 8 9 10 11 12 13 14 15 16 17 18 19 20 21 22 23 24 25 26 27 28 29 30 31 32 33 34 35 36 37 38
000
FTUS46 KOTX 191744
TAFEAT
TAF
KEAT 191744Z 1918/2018 29006KT P6SM OVC017
     FM192000 14003KT P6SM OVC012
     FM200000 14003KT P6SM -RASN SCT008 OVC015
     FM200300 00000KT 3SM -SN BR OVC007
     FM200600 00000KT 2SM BR OVC005=

USA.gov is the U.S. government's official web portal to all federal, state and local government web resources and services.